sensor_id;sensor_type;location;lat;lon;timestamp;temperature;humidity
78467;SHT31;67759;51.972;5.650;2023-05-10T00:01:54;20.1;57.9
78467;SHT31;67759;51.972;5.650;2023-05-10T00:04:26;20.1;58.0
78467;SHT31;67759;51.972;5.650;2023-05-10T00:06:58;20.1;57.8
78467;SHT31;67759;51.972;5.650;2023-05-10T00:09:28;20.1;57.8
78467;SHT31;67759;51.972;5.650;2023-05-10T00:11:57;20.1;56.8
78467;SHT31;67759;51.972;5.650;2023-05-10T00:14:27;20.1;58.0
78467;SHT31;67759;51.972;5.650;2023-05-10T00:16:57;20.1;57.2
78467;SHT31;67759;51.972;5.650;2023-05-10T00:19:27;20.1;57.5
78467;SHT31;67759;51.972;5.650;2023-05-10T00:21:56;20.0;58.0
78467;SHT31;67759;51.972;5.650;2023-05-10T00:24:26;20.0;57.7
78467;SHT31;67759;51.972;5.650;2023-05-10T00:26:56;20.0;58.1
78467;SHT31;67759;51.972;5.650;2023-05-10T00:29:26;20.0;58.1
78467;SHT31;67759;51.972;5.650;2023-05-10T00:31:56;20.0;58.3
78467;SHT31;67759;51.972;5.650;2023-05-10T00:34:25;20.0;58.3
78467;SHT31;67759;51.972;5.650;2023-05-10T00:36:57;20.0;57.4
78467;SHT31;67759;51.972;5.650;2023-05-10T00:39:27;20.0;57.8
78467;SHT31;67759;51.972;5.650;2023-05-10T00:41:57;20.0;57.1
78467;SHT31;67759;51.972;5.650;2023-05-10T00:44:27;20.0;57.5
78467;SHT31;67759;51.972;5.650;2023-05-10T00:46:59;20.0;57.7
78467;SHT31;67759;51.972;5.650;2023-05-10T00:49:29;20.0;58.1
78467;SHT31;67759;51.972;5.650;2023-05-10T00:51:59;20.0;57.5
78467;SHT31;67759;51.972;5.650;2023-05-10T00:54:30;20.0;57.7
78467;SHT31;67759;51.972;5.650;2023-05-10T00:56:59;20.0;57.9
78467;SHT31;67759;51.972;5.650;2023-05-10T00:59:29;20.1;58.2
78467;SHT31;67759;51.972;5.650;2023-05-10T01:02:01;20.1;58.5
78467;SHT31;67759;51.972;5.650;2023-05-10T01:04:33;20.1;58.6
78467;SHT31;67759;51.972;5.650;2023-05-10T01:07:02;20.1;58.6
78467;SHT31;67759;51.972;5.650;2023-05-10T01:09:32;20.1;58.6
78467;SHT31;67759;51.972;5.650;2023-05-10T01:12:03;20.1;58.2
78467;SHT31;67759;51.972;5.650;2023-05-10T01:14:34;20.1;58.3
78467;SHT31;67759;51.972;5.650;2023-05-10T01:17:06;20.2;58.2
78467;SHT31;67759;51.972;5.650;2023-05-10T01:19:39;20.2;57.6
78467;SHT31;67759;51.972;5.650;2023-05-10T01:22:23;20.2;58.4
78467;SHT31;67759;51.972;5.650;2023-05-10T01:25:35;20.3;58.3
78467;SHT31;67759;51.972;5.650;2023-05-10T01:28:34;20.3;57.6
78467;SHT31;67759;51.972;5.650;2023-05-10T01:31:35;20.3;58.1
78467;SHT31;67759;51.972;5.650;2023-05-10T01:34:15;20.3;57.3
78467;SHT31;67759;51.972;5.650;2023-05-10T01:36:50;20.3;57.6
78467;SHT31;67759;51.972;5.650;2023-05-10T01:39:25;20.2;57.7
78467;SHT31;67759;51.972;5.650;2023-05-10T01:42:04;20.2;57.8
78467;SHT31;67759;51.972;5.650;2023-05-10T01:44:41;20.1;58.4
78467;SHT31;67759;51.972;5.650;2023-05-10T01:47:15;20.1;57.8
78467;SHT31;67759;51.972;5.650;2023-05-10T01:49:50;20.1;58.1
78467;SHT31;67759;51.972;5.650;2023-05-10T01:52:26;20.1;58.0
78467;SHT31;67759;51.972;5.650;2023-05-10T01:55:05;20.0;58.0
78467;SHT31;67759;51.972;5.650;2023-05-10T01:57:37;20.0;58.3
78467;SHT31;67759;51.972;5.650;2023-05-10T02:00:10;20.0;58.4
78467;SHT31;67759;51.972;5.650;2023-05-10T02:02:45;20.0;58.0
78467;SHT31;67759;51.972;5.650;2023-05-10T02:05:16;20.0;58.1
78467;SHT31;67759;51.972;5.650;2023-05-10T02:07:47;20.0;57.7
78467;SHT31;67759;51.972;5.650;2023-05-10T02:10:19;20.0;58.2
78467;SHT31;67759;51.972;5.650;2023-05-10T02:12:53;20.0;58.3
78467;SHT31;67759;51.972;5.650;2023-05-10T02:15:24;20.0;58.2
78467;SHT31;67759;51.972;5.650;2023-05-10T02:17:58;20.0;57.9
78467;SHT31;67759;51.972;5.650;2023-05-10T02:20:31;20.0;58.2
78467;SHT31;67759;51.972;5.650;2023-05-10T02:23:03;20.0;58.0
78467;SHT31;67759;51.972;5.650;2023-05-10T02:25:34;20.0;57.7
78467;SHT31;67759;51.972;5.650;2023-05-10T02:28:06;20.0;57.6
78467;SHT31;67759;51.972;5.650;2023-05-10T02:30:37;20.0;57.6
78467;SHT31;67759;51.972;5.650;2023-05-10T02:33:08;20.0;57.2
78467;SHT31;67759;51.972;5.650;2023-05-10T02:35:38;20.0;57.6
78467;SHT31;67759;51.972;5.650;2023-05-10T02:38:09;19.9;57.6
78467;SHT31;67759;51.972;5.650;2023-05-10T02:40:41;19.9;57.8
78467;SHT31;67759;51.972;5.650;2023-05-10T02:43:13;19.8;57.7
78467;SHT31;67759;51.972;5.650;2023-05-10T02:45:47;19.8;57.7
78467;SHT31;67759;51.972;5.650;2023-05-10T02:48:17;19.8;58.0
78467;SHT31;67759;51.972;5.650;2023-05-10T02:50:50;19.8;57.7
78467;SHT31;67759;51.972;5.650;2023-05-10T02:53:23;19.8;57.5
78467;SHT31;67759;51.972;5.650;2023-05-10T02:55:58;19.8;57.2
78467;SHT31;67759;51.972;5.650;2023-05-10T02:58:31;19.8;56.9
78467;SHT31;67759;51.972;5.650;2023-05-10T03:01:01;19.7;57.0
78467;SHT31;67759;51.972;5.650;2023-05-10T03:03:31;19.7;57.2
78467;SHT31;67759;51.972;5.650;2023-05-10T03:06:02;19.7;56.5
78467;SHT31;67759;51.972;5.650;2023-05-10T03:08:31;19.7;57.0
78467;SHT31;67759;51.972;5.650;2023-05-10T03:11:35;19.6;57.5
78467;SHT31;67759;51.972;5.650;2023-05-10T03:14:16;19.6;57.2
78467;SHT31;67759;51.972;5.650;2023-05-10T03:16:55;19.6;57.7
78467;SHT31;67759;51.972;5.650;2023-05-10T03:19:30;19.6;57.6
78467;SHT31;67759;51.972;5.650;2023-05-10T03:22:10;19.6;57.8
78467;SHT31;67759;51.972;5.650;2023-05-10T03:24:42;19.7;57.6
78467;SHT31;67759;51.972;5.650;2023-05-10T03:27:16;19.7;57.7
78467;SHT31;67759;51.972;5.650;2023-05-10T03:29:46;19.7;57.5
78467;SHT31;67759;51.972;5.650;2023-05-10T03:32:17;19.7;57.5
78467;SHT31;67759;51.972;5.650;2023-05-10T03:34:46;19.7;57.7
78467;SHT31;67759;51.972;5.650;2023-05-10T03:37:16;19.7;57.1
78467;SHT31;67759;51.972;5.650;2023-05-10T03:39:45;19.7;57.2
78467;SHT31;67759;51.972;5.650;2023-05-10T03:42:15;19.7;57.5
78467;SHT31;67759;51.972;5.650;2023-05-10T03:44:45;19.6;57.1
78467;SHT31;67759;51.972;5.650;2023-05-10T03:47:16;19.6;57.6
78467;SHT31;67759;51.972;5.650;2023-05-10T03:49:46;19.6;57.4
78467;SHT31;67759;51.972;5.650;2023-05-10T03:52:17;19.6;57.4
78467;SHT31;67759;51.972;5.650;2023-05-10T03:54:47;19.6;57.6
78467;SHT31;67759;51.972;5.650;2023-05-10T03:57:16;19.6;57.6
78467;SHT31;67759;51.972;5.650;2023-05-10T03:59:47;19.6;57.5
78467;SHT31;67759;51.972;5.650;2023-05-10T04:02:18;19.6;57.0
78467;SHT31;67759;51.972;5.650;2023-05-10T04:04:47;19.5;57.6
78467;SHT31;67759;51.972;5.650;2023-05-10T04:07:18;19.5;57.5
78467;SHT31;67759;51.972;5.650;2023-05-10T04:09:47;19.4;57.9
78467;SHT31;67759;51.972;5.650;2023-05-10T04:12:17;19.3;58.3
78467;SHT31;67759;51.972;5.650;2023-05-10T04:14:47;19.2;58.5
78467;SHT31;67759;51.972;5.650;2023-05-10T04:17:16;19.2;58.2
78467;SHT31;67759;51.972;5.650;2023-05-10T04:19:46;19.1;58.4
78467;SHT31;67759;51.972;5.650;2023-05-10T04:22:16;19.1;58.7
78467;SHT31;67759;51.972;5.650;2023-05-10T04:24:45;19.0;58.3
78467;SHT31;67759;51.972;5.650;2023-05-10T04:27:15;19.0;58.5
78467;SHT31;67759;51.972;5.650;2023-05-10T04:29:45;19.0;58.7
78467;SHT31;67759;51.972;5.650;2023-05-10T04:32:14;19.0;58.8
78467;SHT31;67759;51.972;5.650;2023-05-10T04:34:44;19.0;58.4
78467;SHT31;67759;51.972;5.650;2023-05-10T04:37:14;19.0;58.6
78467;SHT31;67759;51.972;5.650;2023-05-10T04:39:44;19.0;58.6
78467;SHT31;67759;51.972;5.650;2023-05-10T04:42:15;18.9;58.5
78467;SHT31;67759;51.972;5.650;2023-05-10T04:44:44;18.9;58.7
78467;SHT31;67759;51.972;5.650;2023-05-10T04:47:14;18.9;58.6
78467;SHT31;67759;51.972;5.650;2023-05-10T04:49:43;19.0;58.9
78467;SHT31;67759;51.972;5.650;2023-05-10T04:52:13;19.0;59.5
78467;SHT31;67759;51.972;5.650;2023-05-10T04:54:44;19.0;59.2
78467;SHT31;67759;51.972;5.650;2023-05-10T04:57:14;19.1;58.6
78467;SHT31;67759;51.972;5.650;2023-05-10T04:59:44;19.2;58.7
78467;SHT31;67759;51.972;5.650;2023-05-10T05:02:14;19.2;59.0
78467;SHT31;67759;51.972;5.650;2023-05-10T05:04:43;19.2;58.9
78467;SHT31;67759;51.972;5.650;2023-05-10T05:07:13;19.3;59.0
78467;SHT31;67759;51.972;5.650;2023-05-10T05:09:42;19.3;59.0
78467;SHT31;67759;51.972;5.650;2023-05-10T05:12:12;19.3;59.2
78467;SHT31;67759;51.972;5.650;2023-05-10T05:14:42;19.4;58.1
78467;SHT31;67759;51.972;5.650;2023-05-10T05:17:14;19.4;58.8
78467;SHT31;67759;51.972;5.650;2023-05-10T05:19:43;19.5;57.7
78467;SHT31;67759;51.972;5.650;2023-05-10T05:22:15;19.6;58.0
78467;SHT31;67759;51.972;5.650;2023-05-10T05:24:45;19.6;57.5
78467;SHT31;67759;51.972;5.650;2023-05-10T05:27:14;19.6;57.6
78467;SHT31;67759;51.972;5.650;2023-05-10T05:29:44;19.6;57.7
78467;SHT31;67759;51.972;5.650;2023-05-10T05:32:14;19.6;58.0
78467;SHT31;67759;51.972;5.650;2023-05-10T05:34:44;19.6;58.0
78467;SHT31;67759;51.972;5.650;2023-05-10T05:37:15;19.6;58.1
78467;SHT31;67759;51.972;5.650;2023-05-10T05:39:45;19.6;57.7
78467;SHT31;67759;51.972;5.650;2023-05-10T05:42:15;19.6;58.0
78467;SHT31;67759;51.972;5.650;2023-05-10T05:44:46;19.6;58.5
78467;SHT31;67759;51.972;5.650;2023-05-10T05:47:15;19.6;58.6
78467;SHT31;67759;51.972;5.650;2023-05-10T05:49:44;19.6;58.5
78467;SHT31;67759;51.972;5.650;2023-05-10T05:52:14;19.7;58.6
78467;SHT31;67759;51.972;5.650;2023-05-10T05:54:44;19.7;58.1
78467;SHT31;67759;51.972;5.650;2023-05-10T05:57:14;19.8;58.0
78467;SHT31;67759;51.972;5.650;2023-05-10T05:59:46;19.8;58.0
78467;SHT31;67759;51.972;5.650;2023-05-10T06:02:16;19.9;57.1
78467;SHT31;67759;51.972;5.650;2023-05-10T06:04:45;19.9;56.6
78467;SHT31;67759;51.972;5.650;2023-05-10T06:07:15;19.9;57.3
78467;SHT31;67759;51.972;5.650;2023-05-10T06:09:44;19.9;56.7
78467;SHT31;67759;51.972;5.650;2023-05-10T06:12:13;19.8;57.1
78467;SHT31;67759;51.972;5.650;2023-05-10T06:14:43;19.8;56.9
78467;SHT31;67759;51.972;5.650;2023-05-10T06:17:12;19.7;57.7
78467;SHT31;67759;51.972;5.650;2023-05-10T06:19:42;19.7;58.0
78467;SHT31;67759;51.972;5.650;2023-05-10T06:22:12;19.6;58.1
78467;SHT31;67759;51.972;5.650;2023-05-10T06:24:41;19.6;58.4
78467;SHT31;67759;51.972;5.650;2023-05-10T06:27:13;19.6;59.3
78467;SHT31;67759;51.972;5.650;2023-05-10T06:29:43;19.6;58.0
78467;SHT31;67759;51.972;5.650;2023-05-10T06:32:12;19.6;58.1
78467;SHT31;67759;51.972;5.650;2023-05-10T06:34:42;19.6;57.5
78467;SHT31;67759;51.972;5.650;2023-05-10T06:37:13;19.6;58.4
78467;SHT31;67759;51.972;5.650;2023-05-10T06:39:43;19.5;58.7
78467;SHT31;67759;51.972;5.650;2023-05-10T06:42:12;19.5;58.6
78467;SHT31;67759;51.972;5.650;2023-05-10T06:44:42;19.4;59.3
78467;SHT31;67759;51.972;5.650;2023-05-10T06:47:11;19.4;58.9
78467;SHT31;67759;51.972;5.650;2023-05-10T06:49:41;19.3;59.2
78467;SHT31;67759;51.972;5.650;2023-05-10T06:52:10;19.3;59.5
78467;SHT31;67759;51.972;5.650;2023-05-10T06:54:39;19.2;59.4
78467;SHT31;67759;51.972;5.650;2023-05-10T06:57:09;19.1;59.6
78467;SHT31;67759;51.972;5.650;2023-05-10T06:59:39;19.0;59.7
78467;SHT31;67759;51.972;5.650;2023-05-10T07:02:08;19.0;60.1
78467;SHT31;67759;51.972;5.650;2023-05-10T07:04:38;18.9;60.5
78467;SHT31;67759;51.972;5.650;2023-05-10T07:07:07;18.9;60.5
78467;SHT31;67759;51.972;5.650;2023-05-10T07:09:37;18.9;60.5
78467;SHT31;67759;51.972;5.650;2023-05-10T07:12:07;18.9;60.8
78467;SHT31;67759;51.972;5.650;2023-05-10T07:14:37;18.9;60.7
78467;SHT31;67759;51.972;5.650;2023-05-10T07:17:06;18.9;61.0
78467;SHT31;67759;51.972;5.650;2023-05-10T07:19:36;19.0;60.1
78467;SHT31;67759;51.972;5.650;2023-05-10T07:22:05;19.0;60.1
78467;SHT31;67759;51.972;5.650;2023-05-10T07:24:35;19.1;59.7
78467;SHT31;67759;51.972;5.650;2023-05-10T07:27:07;19.1;59.6
78467;SHT31;67759;51.972;5.650;2023-05-10T07:29:37;19.2;59.0
78467;SHT31;67759;51.972;5.650;2023-05-10T07:32:07;19.3;59.7
78467;SHT31;67759;51.972;5.650;2023-05-10T07:34:36;19.4;59.2
78467;SHT31;67759;51.972;5.650;2023-05-10T07:37:05;19.5;58.9
78467;SHT31;67759;51.972;5.650;2023-05-10T07:39:35;19.5;58.9
78467;SHT31;67759;51.972;5.650;2023-05-10T07:42:05;19.6;58.7
78467;SHT31;67759;51.972;5.650;2023-05-10T07:44:35;19.7;58.5
78467;SHT31;67759;51.972;5.650;2023-05-10T07:47:05;19.8;58.2
78467;SHT31;67759;51.972;5.650;2023-05-10T07:49:35;19.9;56.9
78467;SHT31;67759;51.972;5.650;2023-05-10T07:52:05;19.9;56.6
78467;SHT31;67759;51.972;5.650;2023-05-10T07:54:35;20.0;55.8
78467;SHT31;67759;51.972;5.650;2023-05-10T07:57:05;19.9;55.8
78467;SHT31;67759;51.972;5.650;2023-05-10T07:59:34;19.9;55.8
78467;SHT31;67759;51.972;5.650;2023-05-10T08:02:04;19.9;55.8
78467;SHT31;67759;51.972;5.650;2023-05-10T08:04:33;19.9;55.7
78467;SHT31;67759;51.972;5.650;2023-05-10T08:07:03;19.8;55.1
78467;SHT31;67759;51.972;5.650;2023-05-10T08:09:32;19.8;55.8
78467;SHT31;67759;51.972;5.650;2023-05-10T08:12:02;19.7;56.2
78467;SHT31;67759;51.972;5.650;2023-05-10T08:14:32;19.7;56.4
78467;SHT31;67759;51.972;5.650;2023-05-10T08:17:04;19.7;55.5
78467;SHT31;67759;51.972;5.650;2023-05-10T08:19:33;19.7;55.2
78467;SHT31;67759;51.972;5.650;2023-05-10T08:22:03;19.8;55.1
78467;SHT31;67759;51.972;5.650;2023-05-10T08:24:32;19.8;56.0
78467;SHT31;67759;51.972;5.650;2023-05-10T08:27:05;19.9;54.6
78467;SHT31;67759;51.972;5.650;2023-05-10T08:29:35;20.0;54.2
78467;SHT31;67759;51.972;5.650;2023-05-10T08:32:04;20.0;54.4
78467;SHT31;67759;51.972;5.650;2023-05-10T08:34:34;20.1;53.7
78467;SHT31;67759;51.972;5.650;2023-05-10T08:37:03;20.2;53.1
78467;SHT31;67759;51.972;5.650;2023-05-10T08:39:36;20.3;52.8
78467;SHT31;67759;51.972;5.650;2023-05-10T08:42:06;20.4;53.0
78467;SHT31;67759;51.972;5.650;2023-05-10T08:44:37;20.4;51.9
78467;SHT31;67759;51.972;5.650;2023-05-10T08:47:09;20.5;52.5
78467;SHT31;67759;51.972;5.650;2023-05-10T08:49:40;20.6;52.2
78467;SHT31;67759;51.972;5.650;2023-05-10T08:52:13;20.6;51.9
78467;SHT31;67759;51.972;5.650;2023-05-10T08:54:44;20.7;51.8
78467;SHT31;67759;51.972;5.650;2023-05-10T08:57:14;20.8;51.3
78467;SHT31;67759;51.972;5.650;2023-05-10T08:59:43;20.9;50.8
78467;SHT31;67759;51.972;5.650;2023-05-10T09:02:14;21.0;50.6
78467;SHT31;67759;51.972;5.650;2023-05-10T09:04:43;21.1;50.5
78467;SHT31;67759;51.972;5.650;2023-05-10T09:07:13;21.1;50.3
78467;SHT31;67759;51.972;5.650;2023-05-10T09:09:44;21.2;50.7
78467;SHT31;67759;51.972;5.650;2023-05-10T09:12:15;21.2;51.5
78467;SHT31;67759;51.972;5.650;2023-05-10T09:14:45;21.3;50.8
78467;SHT31;67759;51.972;5.650;2023-05-10T09:17:16;21.4;50.6
78467;SHT31;67759;51.972;5.650;2023-05-10T09:19:46;21.5;50.3
78467;SHT31;67759;51.972;5.650;2023-05-10T09:22:16;21.6;49.5
78467;SHT31;67759;51.972;5.650;2023-05-10T09:24:46;21.7;49.6
78467;SHT31;67759;51.972;5.650;2023-05-10T09:27:16;21.7;49.1
78467;SHT31;67759;51.972;5.650;2023-05-10T09:29:46;21.8;49.1
78467;SHT31;67759;51.972;5.650;2023-05-10T09:32:15;21.8;49.1
78467;SHT31;67759;51.972;5.650;2023-05-10T09:34:44;21.8;49.5
78467;SHT31;67759;51.972;5.650;2023-05-10T09:37:14;21.8;49.7
78467;SHT31;67759;51.972;5.650;2023-05-10T09:39:44;21.9;49.0
78467;SHT31;67759;51.972;5.650;2023-05-10T09:42:20;22.0;49.0
78467;SHT31;67759;51.972;5.650;2023-05-10T09:44:53;22.0;48.6
78467;SHT31;67759;51.972;5.650;2023-05-10T09:47:22;22.0;48.8
78467;SHT31;67759;51.972;5.650;2023-05-10T09:49:52;22.1;48.8
78467;SHT31;67759;51.972;5.650;2023-05-10T09:52:25;22.2;48.3
78467;SHT31;67759;51.972;5.650;2023-05-10T09:54:54;22.3;48.6
78467;SHT31;67759;51.972;5.650;2023-05-10T09:57:24;22.4;48.6
78467;SHT31;67759;51.972;5.650;2023-05-10T09:59:55;22.5;48.5
78467;SHT31;67759;51.972;5.650;2023-05-10T10:02:30;22.6;47.8
78467;SHT31;67759;51.972;5.650;2023-05-10T10:05:02;22.6;47.5
78467;SHT31;67759;51.972;5.650;2023-05-10T10:07:32;22.7;47.4
78467;SHT31;67759;51.972;5.650;2023-05-10T10:10:03;22.7;47.7
78467;SHT31;67759;51.972;5.650;2023-05-10T10:12:38;22.8;47.1
78467;SHT31;67759;51.972;5.650;2023-05-10T10:15:09;22.8;47.4
78467;SHT31;67759;51.972;5.650;2023-05-10T10:17:39;22.8;48.0
78467;SHT31;67759;51.972;5.650;2023-05-10T10:20:10;22.8;46.8
78467;SHT31;67759;51.972;5.650;2023-05-10T10:22:40;22.9;47.4
78467;SHT31;67759;51.972;5.650;2023-05-10T10:25:12;22.9;46.6
78467;SHT31;67759;51.972;5.650;2023-05-10T10:27:56;23.0;47.0
78467;SHT31;67759;51.972;5.650;2023-05-10T10:30:27;23.0;46.3
78467;SHT31;67759;51.972;5.650;2023-05-10T10:33:39;23.0;46.0
78467;SHT31;67759;51.972;5.650;2023-05-10T10:36:07;23.1;46.8
78467;SHT31;67759;51.972;5.650;2023-05-10T10:38:56;23.1;46.1
78467;SHT31;67759;51.972;5.650;2023-05-10T10:41:30;23.1;46.7
78467;SHT31;67759;51.972;5.650;2023-05-10T10:44:25;23.1;46.1
78467;SHT31;67759;51.972;5.650;2023-05-10T10:47:01;23.1;46.1
78467;SHT31;67759;51.972;5.650;2023-05-10T10:49:51;23.0;46.1
78467;SHT31;67759;51.972;5.650;2023-05-10T10:52:21;23.0;46.5
78467;SHT31;67759;51.972;5.650;2023-05-10T10:54:59;22.9;46.4
78467;SHT31;67759;51.972;5.650;2023-05-10T10:57:32;22.9;46.8
78467;SHT31;67759;51.972;5.650;2023-05-10T11:00:23;22.9;46.7
78467;SHT31;67759;51.972;5.650;2023-05-10T11:02:55;22.8;47.5
78467;SHT31;67759;51.972;5.650;2023-05-10T11:05:59;22.9;47.8
78467;SHT31;67759;51.972;5.650;2023-05-10T11:08:31;22.9;48.0
78467;SHT31;67759;51.972;5.650;2023-05-10T11:11:06;23.0;47.2
78467;SHT31;67759;51.972;5.650;2023-05-10T11:13:38;23.1;46.9
78467;SHT31;67759;51.972;5.650;2023-05-10T11:16:14;23.2;47.5
78467;SHT31;67759;51.972;5.650;2023-05-10T11:18:57;23.3;47.3
78467;SHT31;67759;51.972;5.650;2023-05-10T11:21:29;23.4;46.5
78467;SHT31;67759;51.972;5.650;2023-05-10T11:24:01;23.5;46.4
78467;SHT31;67759;51.972;5.650;2023-05-10T11:26:35;23.5;46.6
78467;SHT31;67759;51.972;5.650;2023-05-10T11:29:05;23.6;46.5
78467;SHT31;67759;51.972;5.650;2023-05-10T11:31:35;23.6;46.8
78467;SHT31;67759;51.972;5.650;2023-05-10T11:34:04;23.7;46.6
78467;SHT31;67759;51.972;5.650;2023-05-10T11:36:35;23.8;46.6
78467;SHT31;67759;51.972;5.650;2023-05-10T11:39:05;23.9;45.9
78467;SHT31;67759;51.972;5.650;2023-05-10T11:41:35;24.0;45.5
78467;SHT31;67759;51.972;5.650;2023-05-10T11:44:04;24.1;45.4
78467;SHT31;67759;51.972;5.650;2023-05-10T11:46:34;24.3;43.8
78467;SHT31;67759;51.972;5.650;2023-05-10T11:49:07;24.5;44.3
78467;SHT31;67759;51.972;5.650;2023-05-10T11:51:37;24.6;44.1
78467;SHT31;67759;51.972;5.650;2023-05-10T11:54:09;24.7;44.2
78467;SHT31;67759;51.972;5.650;2023-05-10T11:56:40;24.9;43.7
78467;SHT31;67759;51.972;5.650;2023-05-10T11:59:10;25.0;43.5
78467;SHT31;67759;51.972;5.650;2023-05-10T12:01:41;25.2;43.6
78467;SHT31;67759;51.972;5.650;2023-05-10T12:04:11;25.3;43.1
78467;SHT31;67759;51.972;5.650;2023-05-10T12:06:42;25.5;42.4
78467;SHT31;67759;51.972;5.650;2023-05-10T12:09:14;25.7;41.6
78467;SHT31;67759;51.972;5.650;2023-05-10T12:11:43;25.9;41.5
78467;SHT31;67759;51.972;5.650;2023-05-10T12:14:13;26.0;41.9
78467;SHT31;67759;51.972;5.650;2023-05-10T12:16:43;26.1;41.4
78467;SHT31;67759;51.972;5.650;2023-05-10T12:19:19;26.2;41.4
78467;SHT31;67759;51.972;5.650;2023-05-10T12:21:51;26.3;41.0
78467;SHT31;67759;51.972;5.650;2023-05-10T12:24:21;26.4;40.4
78467;SHT31;67759;51.972;5.650;2023-05-10T12:26:54;26.4;39.5
78467;SHT31;67759;51.972;5.650;2023-05-10T12:29:24;26.5;40.6
78467;SHT31;67759;51.972;5.650;2023-05-10T12:31:55;26.5;40.5
78467;SHT31;67759;51.972;5.650;2023-05-10T12:34:33;26.6;39.8
78467;SHT31;67759;51.972;5.650;2023-05-10T12:37:07;26.6;40.4
78467;SHT31;67759;51.972;5.650;2023-05-10T12:39:41;26.5;39.2
78467;SHT31;67759;51.972;5.650;2023-05-10T12:42:12;26.5;39.3
78467;SHT31;67759;51.972;5.650;2023-05-10T12:44:41;26.4;39.8
78467;SHT31;67759;51.972;5.650;2023-05-10T12:47:11;26.3;40.6
78467;SHT31;67759;51.972;5.650;2023-05-10T12:49:41;26.2;40.0
78467;SHT31;67759;51.972;5.650;2023-05-10T12:52:10;26.2;40.1
78467;SHT31;67759;51.972;5.650;2023-05-10T12:54:39;26.2;40.7
78467;SHT31;67759;51.972;5.650;2023-05-10T12:57:09;26.1;40.9
78467;SHT31;67759;51.972;5.650;2023-05-10T12:59:39;26.0;41.2
78467;SHT31;67759;51.972;5.650;2023-05-10T13:02:10;25.9;41.4
78467;SHT31;67759;51.972;5.650;2023-05-10T13:04:40;25.6;42.3
78467;SHT31;67759;51.972;5.650;2023-05-10T13:07:12;25.4;42.6
78467;SHT31;67759;51.972;5.650;2023-05-10T13:09:42;25.1;43.3
78467;SHT31;67759;51.972;5.650;2023-05-10T13:12:13;24.9;43.6
78467;SHT31;67759;51.972;5.650;2023-05-10T13:14:43;24.7;44.6
78467;SHT31;67759;51.972;5.650;2023-05-10T13:17:12;24.6;44.7
78467;SHT31;67759;51.972;5.650;2023-05-10T13:19:42;24.4;45.0
78467;SHT31;67759;51.972;5.650;2023-05-10T13:22:11;24.3;45.5
78467;SHT31;67759;51.972;5.650;2023-05-10T13:24:41;24.1;45.8
78467;SHT31;67759;51.972;5.650;2023-05-10T13:27:10;23.9;46.4
78467;SHT31;67759;51.972;5.650;2023-05-10T13:29:40;23.8;47.0
78467;SHT31;67759;51.972;5.650;2023-05-10T13:32:09;23.6;48.1
78467;SHT31;67759;51.972;5.650;2023-05-10T13:34:39;23.3;49.4
78467;SHT31;67759;51.972;5.650;2023-05-10T13:37:08;23.0;50.5
78467;SHT31;67759;51.972;5.650;2023-05-10T13:39:38;22.6;51.4
78467;SHT31;67759;51.972;5.650;2023-05-10T13:42:07;22.3;53.1
78467;SHT31;67759;51.972;5.650;2023-05-10T13:44:37;21.9;54.0
78467;SHT31;67759;51.972;5.650;2023-05-10T13:47:06;21.5;55.7
78467;SHT31;67759;51.972;5.650;2023-05-10T13:49:36;21.3;56.2
78467;SHT31;67759;51.972;5.650;2023-05-10T13:52:05;21.0;57.1
78467;SHT31;67759;51.972;5.650;2023-05-10T13:54:36;20.8;57.6
78467;SHT31;67759;51.972;5.650;2023-05-10T13:57:06;20.6;58.3
78467;SHT31;67759;51.972;5.650;2023-05-10T13:59:36;20.6;58.6
78467;SHT31;67759;51.972;5.650;2023-05-10T14:02:06;20.5;58.5
78467;SHT31;67759;51.972;5.650;2023-05-10T14:04:35;20.5;58.6
78467;SHT31;67759;51.972;5.650;2023-05-10T14:07:05;20.5;58.0
78467;SHT31;67759;51.972;5.650;2023-05-10T14:09:34;20.6;59.0
78467;SHT31;67759;51.972;5.650;2023-05-10T14:12:04;20.6;58.2
78467;SHT31;67759;51.972;5.650;2023-05-10T14:14:34;20.7;58.4
78467;SHT31;67759;51.972;5.650;2023-05-10T14:17:05;20.7;57.8
78467;SHT31;67759;51.972;5.650;2023-05-10T14:19:34;20.7;57.8
78467;SHT31;67759;51.972;5.650;2023-05-10T14:22:04;20.8;57.4
78467;SHT31;67759;51.972;5.650;2023-05-10T14:24:33;20.8;57.7
78467;SHT31;67759;51.972;5.650;2023-05-10T14:27:03;20.8;57.0
78467;SHT31;67759;51.972;5.650;2023-05-10T14:29:33;20.8;56.3
78467;SHT31;67759;51.972;5.650;2023-05-10T14:32:02;20.8;55.9
78467;SHT31;67759;51.972;5.650;2023-05-10T14:34:32;20.8;55.8
78467;SHT31;67759;51.972;5.650;2023-05-10T14:37:02;20.8;55.8
78467;SHT31;67759;51.972;5.650;2023-05-10T14:39:31;20.8;58.1
78467;SHT31;67759;51.972;5.650;2023-05-10T14:42:01;20.8;56.7
78467;SHT31;67759;51.972;5.650;2023-05-10T14:44:31;20.9;55.7
78467;SHT31;67759;51.972;5.650;2023-05-10T14:47:00;20.9;56.0
78467;SHT31;67759;51.972;5.650;2023-05-10T14:49:30;21.0;57.0
78467;SHT31;67759;51.972;5.650;2023-05-10T14:52:01;21.1;55.3
78467;SHT31;67759;51.972;5.650;2023-05-10T14:54:31;21.2;55.1
78467;SHT31;67759;51.972;5.650;2023-05-10T14:57:00;21.2;54.8
78467;SHT31;67759;51.972;5.650;2023-05-10T14:59:30;21.2;55.0
78467;SHT31;67759;51.972;5.650;2023-05-10T15:01:59;21.3;55.1
78467;SHT31;67759;51.972;5.650;2023-05-10T15:04:30;21.3;55.3
78467;SHT31;67759;51.972;5.650;2023-05-10T15:07:00;21.3;56.4
78467;SHT31;67759;51.972;5.650;2023-05-10T15:09:31;21.4;56.0
78467;SHT31;67759;51.972;5.650;2023-05-10T15:12:00;21.5;55.8
78467;SHT31;67759;51.972;5.650;2023-05-10T15:14:30;21.6;56.8
78467;SHT31;67759;51.972;5.650;2023-05-10T15:17:00;21.7;56.7
78467;SHT31;67759;51.972;5.650;2023-05-10T15:19:30;22.0;56.2
78467;SHT31;67759;51.972;5.650;2023-05-10T15:22:00;22.3;53.8
78467;SHT31;67759;51.972;5.650;2023-05-10T15:24:29;22.6;53.3
78467;SHT31;67759;51.972;5.650;2023-05-10T15:26:59;22.9;53.4
78467;SHT31;67759;51.972;5.650;2023-05-10T15:29:29;23.2;52.5
78467;SHT31;67759;51.972;5.650;2023-05-10T15:32:01;23.5;52.0
78467;SHT31;67759;51.972;5.650;2023-05-10T15:34:31;23.8;49.4
78467;SHT31;67759;51.972;5.650;2023-05-10T15:37:02;24.1;49.0
78467;SHT31;67759;51.972;5.650;2023-05-10T15:39:33;24.2;49.1
78467;SHT31;67759;51.972;5.650;2023-05-10T15:42:03;24.4;48.8
78467;SHT31;67759;51.972;5.650;2023-05-10T15:44:33;24.6;47.6
78467;SHT31;67759;51.972;5.650;2023-05-10T15:47:05;24.9;46.5
78467;SHT31;67759;51.972;5.650;2023-05-10T15:49:35;25.1;45.6
78467;SHT31;67759;51.972;5.650;2023-05-10T15:52:07;25.1;45.3
78467;SHT31;67759;51.972;5.650;2023-05-10T15:54:38;25.1;45.0
78467;SHT31;67759;51.972;5.650;2023-05-10T15:57:08;25.1;44.5
78467;SHT31;67759;51.972;5.650;2023-05-10T15:59:37;25.0;45.3
78467;SHT31;67759;51.972;5.650;2023-05-10T16:02:08;24.9;45.5
78467;SHT31;67759;51.972;5.650;2023-05-10T16:04:40;24.8;46.3
78467;SHT31;67759;51.972;5.650;2023-05-10T16:07:11;24.7;46.0
78467;SHT31;67759;51.972;5.650;2023-05-10T16:09:40;24.7;46.3
78467;SHT31;67759;51.972;5.650;2023-05-10T16:12:10;24.6;46.2
78467;SHT31;67759;51.972;5.650;2023-05-10T16:14:39;24.5;45.9
78467;SHT31;67759;51.972;5.650;2023-05-10T16:17:09;24.3;46.5
78467;SHT31;67759;51.972;5.650;2023-05-10T16:19:40;24.2;47.3
78467;SHT31;67759;51.972;5.650;2023-05-10T16:22:10;24.2;47.2
78467;SHT31;67759;51.972;5.650;2023-05-10T16:24:39;24.3;47.0
78467;SHT31;67759;51.972;5.650;2023-05-10T16:27:09;24.3;47.5
78467;SHT31;67759;51.972;5.650;2023-05-10T16:29:39;24.4;46.8